createdAt,value
2018-09-19T00:20:16.305Z,17.80
2018-09-19T00:25:39.062Z,17.60
2018-09-19T00:31:00.989Z,17.60
2018-09-19T00:41:42.913Z,17.60
2018-09-19T00:47:04.675Z,17.50
2018-09-19T01:07:59.619Z,17.50
2018-09-19T07:22:45.411Z,17.30
2018-09-19T07:33:08.856Z,20.10
2018-09-19T07:43:27.177Z,21.00
2018-09-19T07:48:26.853Z,21.80
2018-09-19T07:53:29.919Z,22.20
2018-09-19T07:58:31.139Z,22.40
2018-09-19T08:04:00.249Z,22.60
2018-09-19T08:09:13.305Z,22.90
2018-09-19T08:14:05.162Z,23.40
2018-09-19T08:19:24.211Z,23.60
2018-09-19T08:24:25.717Z,23.80
2018-09-19T08:29:32.731Z,23.50
2018-09-19T08:34:45.288Z,23.40
2018-09-19T08:39:36.565Z,23.70
2018-09-19T08:44:41.022Z,24.00
2018-09-19T08:49:39.339Z,24.40
2018-09-19T08:54:40.048Z,24.60
2018-09-19T08:59:44.562Z,24.80
2018-09-19T09:04:36.895Z,25.10
2018-09-19T09:09:34.773Z,25.30
2018-09-19T09:14:35.132Z,25.30
2018-09-19T09:19:28.579Z,25.70
2018-09-19T09:24:22.794Z,25.70
2018-09-19T09:29:20.934Z,25.80
2018-09-19T09:34:16.048Z,26.20
2018-09-19T09:39:08.108Z,26.30
2018-09-19T09:43:57.429Z,26.40
2018-09-19T09:48:45.962Z,26.60
2018-09-19T09:53:39.093Z,26.80
2018-09-19T09:58:34.220Z,27.00
2018-09-19T10:03:27.628Z,27.20
2018-09-19T10:08:18.301Z,27.60
2018-09-19T10:13:09.970Z,27.50
2018-09-19T10:18:14.034Z,26.80
2018-09-19T10:23:03.304Z,26.60
2018-09-19T10:27:56.261Z,26.40
2018-09-19T10:32:48.650Z,26.40
2018-09-19T10:37:41.459Z,26.30
2018-09-19T10:42:33.511Z,26.00
2018-09-19T10:47:27.537Z,26.30
2018-09-19T10:52:20.178Z,26.50
2018-09-19T10:57:08.007Z,26.40
2018-09-19T11:01:57.760Z,26.70
2018-09-19T11:06:52.088Z,26.50
2018-09-19T11:11:38.444Z,26.00
2018-09-19T11:16:30.186Z,25.70
2018-09-19T11:21:25.503Z,26.00
2018-09-19T11:26:17.032Z,26.50
2018-09-19T11:31:10.410Z,26.60
2018-09-19T11:36:03.320Z,26.80
2018-09-19T11:40:55.525Z,27.50
2018-09-19T11:45:48.057Z,27.80
2018-09-19T11:50:40.588Z,28.10
2018-09-19T11:55:32.708Z,28.30
2018-09-19T12:00:24.827Z,28.30
2018-09-19T12:05:17.013Z,28.50
2018-09-19T12:10:09.901Z,28.80
2018-09-19T12:15:02.063Z,28.90
2018-09-19T12:19:54.046Z,29.00
2018-09-19T12:24:47.715Z,29.10
2018-09-19T12:29:39.805Z,29.50
2018-09-19T12:34:31.807Z,29.20
2018-09-19T12:39:24.296Z,29.10
2018-09-19T12:44:16.129Z,29.20
2018-09-19T12:48:26.798Z,28.80
2018-09-19T12:53:18.066Z,28.80
2018-09-19T12:58:09.068Z,28.80
2018-09-19T13:03:02.095Z,29.10
2018-09-19T13:07:53.916Z,29.30
2018-09-19T13:12:48.299Z,29.40
2018-09-19T13:17:39.970Z,29.30
2018-09-19T13:22:32.770Z,29.20
2018-09-19T13:43:09.654Z,28.70
2018-09-19T13:43:52.165Z,28.70
2018-09-19T13:48:44.887Z,28.70
2018-09-19T13:53:36.508Z,28.90
2018-09-19T13:58:29.357Z,28.90
2018-09-19T14:03:21.426Z,29.00
2018-09-19T14:08:13.150Z,29.00
2018-09-19T14:13:04.576Z,29.10
2018-09-19T14:17:57.330Z,29.00
2018-09-19T14:22:46.737Z,29.00
2018-09-19T14:27:39.630Z,28.90
2018-09-19T14:32:31.386Z,28.90
2018-09-19T14:37:36.816Z,29.20
2018-09-19T14:42:28.246Z,29.20
2018-09-19T14:47:18.579Z,29.00
2018-09-19T14:52:09.307Z,28.60
2018-09-19T14:56:57.636Z,28.10
2018-09-19T15:01:47.530Z,28.00
2018-09-19T15:06:36.108Z,28.00
2018-09-19T15:11:30.662Z,28.00
2018-09-19T15:16:23.222Z,28.00
2018-09-19T15:21:16.269Z,27.80
2018-09-19T15:26:17.401Z,27.70
2018-09-19T15:31:06.709Z,27.50
2018-09-19T15:35:57.024Z,27.70
2018-09-19T15:40:50.932Z,27.70
2018-09-19T15:45:44.721Z,27.50
2018-09-19T15:50:44.279Z,27.40
2018-09-19T15:55:42.085Z,27.30
2018-09-19T16:00:38.406Z,27.30
2018-09-19T16:05:25.015Z,27.40
2018-09-19T16:10:17.998Z,27.50
2018-09-19T16:15:12.728Z,27.50
2018-09-19T16:20:34.497Z,27.40
2018-09-19T16:25:22.579Z,27.30
2018-09-19T16:30:21.540Z,27.20
2018-09-19T16:35:10.053Z,27.00
2018-09-19T16:40:28.555Z,26.90
2018-09-19T16:45:31.327Z,26.70
2018-09-19T16:50:24.431Z,26.60
2018-09-19T16:55:23.304Z,26.50
2018-09-19T17:00:11.063Z,26.30
2018-09-19T17:05:09.112Z,26.20
2018-09-19T17:10:05.780Z,26.00
2018-09-19T17:15:01.411Z,25.80
2018-09-19T17:19:51.846Z,25.60
2018-09-19T17:24:45.540Z,25.40
2018-09-19T17:29:48.154Z,25.20
2018-09-19T17:34:37.272Z,25.00
2018-09-19T17:39:29.837Z,24.80
2018-09-19T17:44:24.920Z,24.70
2018-09-19T17:49:25.804Z,24.50
2018-09-19T17:54:36.246Z,24.30
2018-09-19T17:59:39.164Z,24.10
2018-09-19T18:04:50.868Z,23.90
2018-09-19T18:09:35.711Z,23.70
2018-09-19T18:14:31.636Z,23.60
2018-09-19T18:19:25.563Z,23.50
2018-09-19T18:24:33.889Z,23.40
2018-09-19T18:29:35.165Z,23.30
2018-09-19T18:34:33.588Z,23.20
2018-09-19T18:39:44.191Z,23.10
2018-09-19T18:44:50.613Z,22.90
2018-09-19T18:49:48.051Z,22.80
2018-09-19T18:55:07.651Z,22.70
2018-09-19T19:05:15.548Z,22.50
2018-09-19T19:10:16.886Z,22.00
2018-09-19T19:15:18.233Z,21.80
2018-09-19T19:20:13.341Z,21.60
2018-09-19T19:25:25.744Z,21.50
2018-09-19T19:30:17.687Z,21.30
2018-09-19T19:35:27.871Z,21.10
2018-09-19T19:40:38.948Z,21.00
2018-09-19T19:45:52.957Z,20.80
2018-09-19T19:56:29.687Z,20.60
2018-09-19T20:01:32.103Z,20.30
2018-09-19T20:06:31.802Z,20.30
2018-09-19T20:11:40.306Z,20.20
2018-09-19T20:16:47.795Z,20.10
2018-09-19T20:21:59.657Z,20.10
2018-09-19T20:26:58.632Z,20.00
2018-09-19T20:32:02.049Z,20.00
2018-09-19T20:37:13.313Z,20.00
2018-09-19T20:42:21.764Z,20.00
2018-09-19T20:47:27.049Z,19.90
2018-09-19T20:52:28.492Z,19.90
2018-09-19T20:57:34.948Z,19.90
2018-09-19T21:02:42.195Z,19.90
2018-09-19T21:07:44.954Z,20.00
2018-09-19T21:12:50.280Z,20.00
2018-09-19T21:17:53.341Z,20.00
2018-09-19T21:23:04.387Z,19.90
2018-09-19T21:28:14.843Z,19.80
2018-09-19T21:33:26.182Z,19.70
2018-09-19T21:38:36.474Z,19.60
2018-09-19T21:43:49.498Z,19.50
2018-09-19T21:48:54.057Z,19.40
2018-09-19T21:54:10.228Z,19.30
2018-09-19T21:59:18.339Z,19.20
2018-09-19T22:04:35.118Z,19.00
2018-09-19T22:09:49.150Z,18.90
2018-09-19T22:15:11.196Z,18.80
2018-09-19T22:20:19.788Z,18.70
2018-09-19T22:25:47.089Z,18.60
2018-09-19T22:31:11.819Z,18.70
2018-09-19T22:36:31.315Z,18.60
2018-09-19T22:41:47.036Z,18.60
2018-09-19T22:46:58.811Z,18.60
2018-09-19T22:52:14.630Z,18.60
2018-09-19T22:57:36.970Z,18.60
2018-09-19T23:02:46.990Z,18.50
2018-09-19T23:08:06.621Z,18.50
2018-09-19T23:13:28.611Z,18.50
2018-09-19T23:18:50.804Z,18.50
2018-09-19T23:24:09.726Z,18.50
2018-09-19T23:29:28.561Z,18.40
2018-09-19T23:34:50.559Z,18.40
2018-09-19T23:40:04.469Z,18.30
2018-09-19T23:55:43.072Z,18.30
